Time;durP1;ratioP1;P1;durP2;ratioP2;P2;SDS_P1;SDS_P2;PMS_P1;PMS_P2;Temp;Humidity;BMP_temperature;BMP_pressure;BME280_temperature;BME280_humidity;BME280_pressure;Samples;Min_cycle;Max_cycle;Signal;HPM_P1;HPM_P2
2022/01/30 00:01:32;;;;;;;;;;;4.80;99.90;;;;;;4996393;28;19945;-80
2022/01/30 00:03:58;;;;;;;;;;;4.80;99.90;;;;;;4987351;28;20285;-80
2022/01/30 00:06:23;;;;;;;;;;;4.80;99.90;;;;;;4989007;28;19964;-80
2022/01/30 00:08:49;;;;;;;;;;;4.80;99.90;;;;;;4994241;28;19913;-79
2022/01/30 00:11:20;;;;;;;;;;;4.80;99.90;;;;;;4995247;28;19961;-80
2022/01/30 00:13:46;;;;;;;;;;;4.80;99.90;;;;;;5003144;28;19926;-80
2022/01/30 00:16:14;;;;;;;;;;;4.90;99.90;;;;;;4991680;28;20253;-80
2022/01/30 00:21:30;;;;;;;;;;;4.90;99.90;;;;;;5005367;28;21042;-80
2022/01/30 00:24:11;;;;;;;;;;;4.90;99.90;;;;;;5002308;28;20016;-79
2022/01/30 00:26:39;;;;;;;;;;;4.90;99.90;;;;;;5001091;28;19914;-80
2022/01/30 00:29:05;;;;;;;;;;;4.90;99.90;;;;;;5008834;28;20020;-80
2022/01/30 00:31:32;;;;;;;;;;;4.90;99.90;;;;;;5002621;28;20391;-80
2022/01/30 00:33:59;;;;;;;;;;;4.90;99.90;;;;;;4993654;28;19918;-80
2022/01/30 00:36:25;;;;;;;;;;;4.90;99.90;;;;;;4999497;28;19929;-80
2022/01/30 00:38:52;;;;;;;;;;;4.90;99.90;;;;;;5001177;28;19960;-80
2022/01/30 00:41:18;;;;;;;;;;;4.80;99.90;;;;;;5009752;28;19917;-79
2022/01/30 00:43:44;;;;;;;;;;;4.80;99.90;;;;;;5013087;28;19937;-79
2022/01/30 00:46:09;;;;;;;;;;;4.80;99.90;;;;;;4983146;28;19964;-79
2022/01/30 00:48:35;;;;;;;;;;;4.80;99.90;;;;;;4980365;28;19921;-80
2022/01/30 00:51:01;;;;;;;;;;;4.80;99.90;;;;;;4985978;28;19918;-81
2022/01/30 00:53:26;;;;;;;;;;;4.70;99.90;;;;;;5002622;28;19921;-80
2022/01/30 00:55:52;;;;;;;;;;;4.70;99.90;;;;;;4993700;28;19918;-79
2022/01/30 00:58:17;;;;;;;;;;;4.60;99.90;;;;;;4993109;28;19918;-80
2022/01/30 01:00:43;;;;;;;;;;;4.60;99.90;;;;;;5003291;28;19933;-80
2022/01/30 01:03:09;;;;;;;;;;;4.50;99.90;;;;;;4996318;28;20284;-79
2022/01/30 01:05:37;;;;;;;;;;;4.60;99.90;;;;;;5003262;28;20368;-79
2022/01/30 01:08:15;;;;;;;;;;;4.50;99.90;;;;;;5009517;28;19936;-79
2022/01/30 01:10:58;;;;;;;;;;;4.50;99.90;;;;;;4994236;28;19922;-80
2022/01/30 01:13:59;;;;;;;;;;;4.50;99.90;;;;;;4995977;28;19918;-80
2022/01/30 01:24:38;;;;;;;;;;;4.50;99.90;;;;;;5003261;28;19928;-80
2022/01/30 01:27:04;;;;;;;;;;;4.40;99.90;;;;;;4996008;28;19945;-80
2022/01/30 01:29:29;;;;;;;;;;;4.40;99.90;;;;;;4994092;28;20376;-80
2022/01/30 01:31:55;;;;;;;;;;;4.40;99.90;;;;;;5012210;28;19917;-80
2022/01/30 01:34:31;;;;;;;;;;;4.40;99.90;;;;;;5000811;28;19914;-80
2022/01/30 01:36:57;;;;;;;;;;;4.30;99.90;;;;;;5007705;28;20336;-80
2022/01/30 01:39:23;;;;;;;;;;;4.30;99.90;;;;;;5000804;28;20025;-80
2022/01/30 01:41:49;;;;;;;;;;;4.30;99.90;;;;;;4998181;28;20383;-80
2022/01/30 01:44:20;;;;;;;;;;;4.30;99.90;;;;;;4992289;28;20019;-79
2022/01/30 01:46:47;;;;;;;;;;;4.30;99.90;;;;;;4994515;28;19946;-80
2022/01/30 01:49:20;;;;;;;;;;;4.30;99.90;;;;;;4994246;28;19932;-79
2022/01/30 01:51:50;;;;;;;;;;;4.30;99.90;;;;;;5008270;28;19975;-80
2022/01/30 01:54:15;;;;;;;;;;;4.30;99.90;;;;;;4997144;28;19917;-79
2022/01/30 01:56:42;;;;;;;;;;;4.30;99.90;;;;;;5009380;28;20277;-80
2022/01/30 01:59:23;;;;;;;;;;;4.30;99.90;;;;;;4982492;28;19949;-80
2022/01/30 02:02:07;;;;;;;;;;;4.30;99.90;;;;;;4989746;28;19932;-80
2022/01/30 02:04:33;;;;;;;;;;;4.30;99.90;;;;;;4999738;28;19918;-79
2022/01/30 02:09:47;;;;;;;;;;;4.30;99.90;;;;;;4982495;28;19921;-79
2022/01/30 02:12:50;;;;;;;;;;;4.20;99.90;;;;;;4998287;28;20338;-81
2022/01/30 02:26:02;;;;;;;;;;;4.10;99.90;;;;;;4996380;28;19917;-80
2022/01/30 02:28:31;;;;;;;;;;;4.10;99.90;;;;;;5006965;28;20395;-79
2022/01/30 02:31:08;;;;;;;;;;;4.10;99.90;;;;;;4987085;28;20379;-79
2022/01/30 02:33:34;;;;;;;;;;;4.10;99.90;;;;;;4996754;28;19925;-79
2022/01/30 02:36:00;;;;;;;;;;;4.10;99.90;;;;;;4997972;28;19914;-79
2022/01/30 02:38:25;;;;;;;;;;;4.10;99.90;;;;;;4978510;28;19922;-80
2022/01/30 02:40:55;;;;;;;;;;;4.10;99.90;;;;;;4994183;28;20373;-79
2022/01/30 02:43:25;;;;;;;;;;;4.10;99.90;;;;;;4982478;28;19925;-80
2022/01/30 02:46:05;;;;;;;;;;;4.10;99.90;;;;;;4988884;28;19999;-79
2022/01/30 02:48:49;;;;;;;;;;;4.10;99.90;;;;;;4995272;28;20576;-79
2022/01/30 02:51:17;;;;;;;;;;;4.10;99.90;;;;;;4979501;28;20443;-80
2022/01/30 02:53:46;;;;;;;;;;;4.10;99.90;;;;;;4994180;28;19913;-79
2022/01/30 02:56:16;;;;;;;;;;;4.00;99.90;;;;;;4989171;28;19924;-79
2022/01/30 02:58:41;;;;;;;;;;;4.10;99.90;;;;;;4996060;28;19918;-80
2022/01/30 03:01:07;;;;;;;;;;;4.10;99.90;;;;;;4998519;28;19922;-80
2022/01/30 03:03:32;;;;;;;;;;;4.00;99.90;;;;;;4992063;28;19957;-79
2022/01/30 03:05:58;;;;;;;;;;;4.00;99.90;;;;;;4986359;28;19925;-78
2022/01/30 03:08:24;;;;;;;;;;;4.00;99.90;;;;;;4997493;28;20024;-79
2022/01/30 03:10:49;;;;;;;;;;;4.00;99.90;;;;;;4992056;28;19918;-79
2022/01/30 03:13:15;;;;;;;;;;;4.00;99.90;;;;;;4990866;28;19961;-79
2022/01/30 03:15:41;;;;;;;;;;;3.90;99.90;;;;;;4969846;28;19949;-79
2022/01/30 03:18:06;;;;;;;;;;;3.90;99.90;;;;;;4990937;28;20380;-79
2022/01/30 03:20:32;;;;;;;;;;;3.90;99.90;;;;;;4992037;28;20017;-80
2022/01/30 03:22:59;;;;;;;;;;;3.90;99.90;;;;;;4992735;28;20045;-79
2022/01/30 03:25:25;;;;;;;;;;;3.90;99.90;;;;;;5002357;28;20299;-79
2022/01/30 03:28:04;;;;;;;;;;;4.00;99.90;;;;;;4984382;28;19917;-80
2022/01/30 03:30:36;;;;;;;;;;;4.00;99.90;;;;;;4997891;28;19921;-79
2022/01/30 03:33:14;;;;;;;;;;;4.00;99.90;;;;;;5005783;28;19980;-79
2022/01/30 03:35:40;;;;;;;;;;;4.00;99.90;;;;;;5001889;28;20364;-79
2022/01/30 03:38:06;;;;;;;;;;;4.00;99.90;;;;;;4992677;28;19917;-79
2022/01/30 03:40:33;;;;;;;;;;;3.90;99.90;;;;;;4997870;28;19925;-80
2022/01/30 03:43:00;;;;;;;;;;;3.90;99.90;;;;;;4976304;28;19930;-79
2022/01/30 03:45:26;;;;;;;;;;;3.90;99.90;;;;;;5003731;28;19918;-79
2022/01/30 03:47:55;;;;;;;;;;;3.90;99.90;;;;;;4995370;28;20052;-79
2022/01/30 03:50:25;;;;;;;;;;;3.90;99.90;;;;;;4991634;28;19964;-79
2022/01/30 03:52:51;;;;;;;;;;;3.80;99.90;;;;;;4982198;28;20005;-79
2022/01/30 03:55:18;;;;;;;;;;;3.80;99.90;;;;;;4983144;28;19925;-79
2022/01/30 03:57:43;;;;;;;;;;;3.70;99.90;;;;;;4991178;28;20288;-78
2022/01/30 04:00:09;;;;;;;;;;;3.70;99.90;;;;;;5006002;28;19973;-79
2022/01/30 04:02:45;;;;;;;;;;;3.70;99.90;;;;;;4995069;28;19925;-79
2022/01/30 04:05:10;;;;;;;;;;;3.60;99.90;;;;;;4970140;28;19918;-79
2022/01/30 04:07:36;;;;;;;;;;;3.60;99.90;;;;;;5006454;28;19940;-79
2022/01/30 04:10:16;;;;;;;;;;;3.60;99.90;;;;;;5001734;28;19928;-79
2022/01/30 04:12:58;;;;;;;;;;;3.50;99.90;;;;;;5002858;28;19924;-80
2022/01/30 04:15:42;;;;;;;;;;;3.50;99.90;;;;;;5000072;28;19945;-79
2022/01/30 04:18:19;;;;;;;;;;;3.40;99.90;;;;;;4994384;28;19917;-80
2022/01/30 04:21:08;;;;;;;;;;;3.40;99.90;;;;;;4983445;28;19944;-79
2022/01/30 04:23:43;;;;;;;;;;;3.40;99.90;;;;;;4986906;28;20454;-79
2022/01/30 04:26:29;;;;;;;;;;;3.30;99.90;;;;;;4979461;28;19922;-79
2022/01/30 04:29:10;;;;;;;;;;;3.30;99.90;;;;;;5004417;28;19913;-78
2022/01/30 04:31:48;;;;;;;;;;;3.30;99.90;;;;;;4998065;28;19918;-79
2022/01/30 04:34:32;;;;;;;;;;;3.30;99.90;;;;;;4980320;28;19925;-79
2022/01/30 04:37:22;;;;;;;;;;;3.30;99.90;;;;;;5000562;28;19913;-79
2022/01/30 04:58:31;;;;;;;;;;;3.10;99.90;;;;;;4993803;28;19918;-79
2022/01/30 05:01:07;;;;;;;;;;;3.10;99.90;;;;;;4986129;28;19921;-80
2022/01/30 05:09:45;;;;;;;;;;;3.00;99.90;;;;;;4971551;28;19918;-79
2022/01/30 05:12:22;;;;;;;;;;;3.00;99.90;;;;;;4980340;28;19924;-78
2022/01/30 05:15:13;;;;;;;;;;;3.00;99.90;;;;;;5002870;28;19918;-80
2022/01/30 05:17:57;;;;;;;;;;;2.90;99.90;;;;;;5003022;28;20020;-79
2022/01/30 05:20:56;;;;;;;;;;;2.90;99.90;;;;;;4979125;28;20253;-79
2022/01/30 05:23:35;;;;;;;;;;;2.90;99.90;;;;;;5002030;28;19936;-79
2022/01/30 05:26:07;;;;;;;;;;;2.90;99.90;;;;;;5003934;28;19918;-80
2022/01/30 05:28:36;;;;;;;;;;;2.90;99.90;;;;;;4999408;28;19920;-79
2022/01/30 05:31:20;;;;;;;;;;;2.90;99.90;;;;;;5002974;28;19920;-79
2022/01/30 05:34:06;;;;;;;;;;;2.90;99.90;;;;;;5003484;28;19917;-79
2022/01/30 05:37:08;;;;;;;;;;;2.90;99.90;;;;;;4971775;28;19962;-79
2022/01/30 05:39:52;;;;;;;;;;;2.90;99.90;;;;;;4997651;28;19924;-79
2022/01/30 05:42:50;;;;;;;;;;;2.90;99.90;;;;;;4996279;28;19922;-79
2022/01/30 05:45:51;;;;;;;;;;;2.80;99.90;;;;;;4990306;28;19922;-80
2022/01/30 05:48:30;;;;;;;;;;;2.90;99.90;;;;;;5001932;28;19917;-80
2022/01/30 05:51:16;;;;;;;;;;;2.90;99.90;;;;;;4980520;28;19964;-79
2022/01/30 05:53:48;;;;;;;;;;;2.90;99.90;;;;;;4990591;28;19918;-79
2022/01/30 05:56:19;;;;;;;;;;;2.80;99.90;;;;;;5000091;28;19918;-79
2022/01/30 05:58:45;;;;;;;;;;;2.80;99.90;;;;;;4998502;28;19920;-79
2022/01/30 06:01:39;;;;;;;;;;;2.80;99.90;;;;;;4992604;28;19922;-81
2022/01/30 06:04:16;;;;;;;;;;;2.80;99.90;;;;;;5000005;28;19947;-79
2022/01/30 06:06:49;;;;;;;;;;;2.80;99.90;;;;;;4997262;28;19917;-79
2022/01/30 06:11:47;;;;;;;;;;;2.80;99.90;;;;;;4985276;28;19918;-80
2022/01/30 06:14:14;;;;;;;;;;;2.80;99.90;;;;;;4993914;28;19936;-80
2022/01/30 06:16:40;;;;;;;;;;;2.80;99.90;;;;;;4996767;28;19921;-79
2022/01/30 06:19:24;;;;;;;;;;;2.70;99.90;;;;;;5009688;28;19918;-79
2022/01/30 06:22:16;;;;;;;;;;;2.70;99.90;;;;;;4996688;28;19956;-80
2022/01/30 06:25:20;;;;;;;;;;;2.70;99.90;;;;;;4963035;28;20309;-79
2022/01/30 06:28:04;;;;;;;;;;;2.70;99.90;;;;;;4961676;28;19973;-80
2022/01/30 06:30:55;;;;;;;;;;;2.70;99.90;;;;;;4997479;28;20379;-79
2022/01/30 06:33:26;;;;;;;;;;;2.80;99.90;;;;;;5008042;28;19925;-79
2022/01/30 06:36:12;;;;;;;;;;;2.80;99.90;;;;;;4989558;28;19925;-79
2022/01/30 06:38:43;;;;;;;;;;;2.80;99.90;;;;;;4986210;28;20418;-79
2022/01/30 06:41:38;;;;;;;;;;;2.80;99.90;;;;;;4993919;28;20291;-79
2022/01/30 06:44:26;;;;;;;;;;;2.80;99.90;;;;;;5034882;23;19925;-80
2022/01/30 06:47:11;;;;;;;;;;;2.80;99.90;;;;;;5015963;28;19960;-80
2022/01/30 06:49:55;;;;;;;;;;;2.80;99.90;;;;;;5030008;28;20010;-80
2022/01/30 06:52:50;;;;;;;;;;;2.80;99.90;;;;;;4996295;28;20318;-81
2022/01/30 06:55:34;;;;;;;;;;;2.80;99.90;;;;;;4991863;28;19925;-81
2022/01/30 06:58:26;;;;;;;;;;;2.90;99.90;;;;;;4996859;28;19968;-79
2022/01/30 07:01:27;;;;;;;;;;;2.90;99.90;;;;;;4988299;28;20004;-80
2022/01/30 07:04:12;;;;;;;;;;;2.90;99.90;;;;;;5007020;28;19924;-80
2022/01/30 07:07:13;;;;;;;;;;;2.90;99.90;;;;;;4998283;28;19917;-80
2022/01/30 07:09:38;;;;;;;;;;;2.90;99.90;;;;;;5009791;28;19928;-80
2022/01/30 07:12:04;;;;;;;;;;;2.90;99.90;;;;;;4994601;28;19914;-81
2022/01/30 07:14:30;;;;;;;;;;;3.00;99.90;;;;;;4993922;28;19964;-82
2022/01/30 07:16:56;;;;;;;;;;;2.90;99.90;;;;;;4992081;28;20394;-79
2022/01/30 07:19:21;;;;;;;;;;;3.00;99.90;;;;;;5002103;28;19983;-81
2022/01/30 07:21:47;;;;;;;;;;;3.00;99.90;;;;;;4994415;28;19925;-81
2022/01/30 07:24:13;;;;;;;;;;;3.00;99.90;;;;;;4990342;28;19914;-80
2022/01/30 07:26:38;;;;;;;;;;;3.00;99.90;;;;;;5006523;28;19918;-80
2022/01/30 07:29:04;;;;;;;;;;;3.00;99.90;;;;;;5005688;28;19917;-80
2022/01/30 07:31:33;;;;;;;;;;;3.00;99.90;;;;;;4973562;28;19917;-81
2022/01/30 07:34:02;;;;;;;;;;;3.00;99.90;;;;;;5013831;28;19940;-81
2022/01/30 07:36:28;;;;;;;;;;;3.00;99.90;;;;;;4995249;28;19953;-81
2022/01/30 07:38:54;;;;;;;;;;;3.00;99.90;;;;;;4998527;28;19952;-81
2022/01/30 07:41:20;;;;;;;;;;;3.00;99.90;;;;;;5014932;28;19918;-81
2022/01/30 07:43:46;;;;;;;;;;;3.00;99.90;;;;;;5014047;28;20360;-82
2022/01/30 07:46:11;;;;;;;;;;;3.10;99.90;;;;;;4997443;28;19964;-81
2022/01/30 07:48:38;;;;;;;;;;;3.10;99.90;;;;;;5011798;28;19921;-81
2022/01/30 07:51:03;;;;;;;;;;;3.10;99.90;;;;;;5013084;28;20000;-80
2022/01/30 07:53:29;;;;;;;;;;;3.20;99.90;;;;;;5013405;28;19957;-81
2022/01/30 07:55:56;;;;;;;;;;;3.20;99.90;;;;;;5015004;28;19952;-79
2022/01/30 07:58:22;;;;;;;;;;;3.20;99.90;;;;;;5014151;28;20454;-79
2022/01/30 08:00:47;;;;;;;;;;;3.20;99.90;;;;;;4997872;28;20012;-79
2022/01/30 08:03:13;;;;;;;;;;;3.20;99.90;;;;;;5007515;28;19920;-79
2022/01/30 08:05:39;;;;;;;;;;;3.30;99.90;;;;;;4998195;28;19933;-79
2022/01/30 08:08:05;;;;;;;;;;;3.30;99.90;;;;;;5011984;28;19957;-82
2022/01/30 08:10:31;;;;;;;;;;;3.30;99.90;;;;;;5014918;28;19914;-81
2022/01/30 08:12:56;;;;;;;;;;;3.30;99.90;;;;;;4998226;28;20291;-81
2022/01/30 08:15:22;;;;;;;;;;;3.40;99.90;;;;;;4980108;28;19918;-82
2022/01/30 08:17:48;;;;;;;;;;;3.40;99.90;;;;;;4992999;28;19922;-81
2022/01/30 08:20:14;;;;;;;;;;;3.40;99.90;;;;;;4994711;28;19913;-81
2022/01/30 08:22:48;;;;;;;;;;;3.40;99.90;;;;;;5010079;28;19949;-82
2022/01/30 08:25:14;;;;;;;;;;;3.40;99.90;;;;;;5008497;28;19944;-82
2022/01/30 08:27:39;;;;;;;;;;;3.40;99.90;;;;;;4993816;28;20363;-83
2022/01/30 08:30:05;;;;;;;;;;;3.50;99.90;;;;;;5006203;28;19932;-81
2022/01/30 08:32:31;;;;;;;;;;;3.50;99.90;;;;;;5012680;28;19929;-79
2022/01/30 08:34:57;;;;;;;;;;;3.50;99.90;;;;;;4992669;28;20017;-79
2022/01/30 08:37:23;;;;;;;;;;;3.50;99.90;;;;;;5005985;28;19918;-80
2022/01/30 08:39:48;;;;;;;;;;;3.60;99.90;;;;;;5010393;28;19939;-81
2022/01/30 08:42:14;;;;;;;;;;;3.60;99.90;;;;;;5002595;28;19921;-81
2022/01/30 08:44:39;;;;;;;;;;;3.60;99.90;;;;;;5010899;28;20004;-80
2022/01/30 08:47:05;;;;;;;;;;;3.70;99.90;;;;;;5007939;28;19929;-80
2022/01/30 08:49:30;;;;;;;;;;;3.80;99.90;;;;;;5014597;28;19924;-80
2022/01/30 08:51:56;;;;;;;;;;;3.80;99.90;;;;;;4996209;28;21373;-78
2022/01/30 08:54:22;;;;;;;;;;;3.80;99.90;;;;;;5005982;28;19960;-80
2022/01/30 08:56:47;;;;;;;;;;;3.80;99.90;;;;;;4985283;28;19925;-78
2022/01/30 08:59:13;;;;;;;;;;;3.80;99.90;;;;;;4990134;28;19914;-78
2022/01/30 09:01:40;;;;;;;;;;;3.80;99.90;;;;;;5002204;28;19926;-79
2022/01/30 09:04:06;;;;;;;;;;;3.80;99.90;;;;;;4996621;28;19914;-81
2022/01/30 09:06:31;;;;;;;;;;;3.90;99.90;;;;;;5012790;28;19932;-79
2022/01/30 09:08:59;;;;;;;;;;;3.90;99.90;;;;;;5005067;28;19921;-80
2022/01/30 09:11:25;;;;;;;;;;;3.90;99.90;;;;;;4995464;28;19921;-80
2022/01/30 09:13:50;;;;;;;;;;;3.90;99.90;;;;;;5012501;28;20371;-81
2022/01/30 09:16:16;;;;;;;;;;;3.90;99.90;;;;;;4991677;28;19918;-79
2022/01/30 09:18:42;;;;;;;;;;;3.90;99.90;;;;;;5002682;28;20414;-80
2022/01/30 09:21:08;;;;;;;;;;;4.00;99.90;;;;;;4995118;28;19988;-79
2022/01/30 09:23:33;;;;;;;;;;;4.00;99.90;;;;;;5012805;28;20009;-80
2022/01/30 09:25:59;;;;;;;;;;;4.00;99.90;;;;;;4987815;28;19917;-80
2022/01/30 09:28:24;;;;;;;;;;;4.00;99.90;;;;;;4991481;28;19949;-80
2022/01/30 09:30:50;;;;;;;;;;;4.00;99.90;;;;;;4998135;28;19921;-80
2022/01/30 09:33:16;;;;;;;;;;;4.00;99.90;;;;;;4994376;28;19918;-80
2022/01/30 09:35:41;;;;;;;;;;;4.00;99.90;;;;;;5001373;28;20000;-80
2022/01/30 09:38:07;;;;;;;;;;;4.00;99.90;;;;;;4995379;28;20379;-80
2022/01/30 09:40:33;;;;;;;;;;;4.10;99.90;;;;;;4993042;28;19922;-80
2022/01/30 09:42:58;;;;;;;;;;;4.10;99.90;;;;;;4978422;28;19932;-80
2022/01/30 09:45:24;;;;;;;;;;;4.10;99.90;;;;;;4994701;28;19975;-80
2022/01/30 09:47:50;;;;;;;;;;;4.00;99.90;;;;;;4992498;28;19960;-80
2022/01/30 09:50:17;;;;;;;;;;;4.00;99.90;;;;;;5007590;28;20008;-81
2022/01/30 09:52:43;;;;;;;;;;;4.00;99.90;;;;;;4990960;28;20362;-81
2022/01/30 09:55:10;;;;;;;;;;;4.00;99.90;;;;;;5009665;28;20291;-80
2022/01/30 09:57:36;;;;;;;;;;;4.00;99.90;;;;;;4983060;28;20502;-80
2022/01/30 10:00:04;;;;;;;;;;;4.00;99.90;;;;;;4990159;28;20005;-80
2022/01/30 10:02:33;;;;;;;;;;;4.00;99.90;;;;;;5004709;28;19918;-80
2022/01/30 10:04:58;;;;;;;;;;;4.10;99.90;;;;;;4981911;28;19925;-80
2022/01/30 10:07:37;;;;;;;;;;;4.10;99.90;;;;;;5010112;28;19917;-80
2022/01/30 10:10:07;;;;;;;;;;;4.20;99.90;;;;;;4992543;28;19913;-80
2022/01/30 10:12:33;;;;;;;;;;;4.20;99.90;;;;;;4991635;28;19956;-79
2022/01/30 10:14:59;;;;;;;;;;;4.30;99.90;;;;;;5007610;28;19921;-83
2022/01/30 10:17:26;;;;;;;;;;;4.30;99.90;;;;;;4993137;28;20000;-83
2022/01/30 10:20:09;;;;;;;;;;;4.30;99.90;;;;;;4989756;28;19921;-81
2022/01/30 10:22:37;;;;;;;;;;;4.40;99.90;;;;;;5005566;28;19917;-83
2022/01/30 10:25:03;;;;;;;;;;;4.30;99.90;;;;;;5017156;28;20583;-82
2022/01/30 10:27:29;;;;;;;;;;;4.40;99.90;;;;;;4989237;28;19924;-82
2022/01/30 10:29:57;;;;;;;;;;;4.50;99.90;;;;;;4983139;28;20596;-83
2022/01/30 10:32:22;;;;;;;;;;;4.40;99.90;;;;;;5004708;28;19917;-85
2022/01/30 10:34:55;;;;;;;;;;;4.50;99.90;;;;;;4990902;28;19971;-83
2022/01/30 10:37:23;;;;;;;;;;;4.50;99.90;;;;;;4989356;28;19924;-82
2022/01/30 10:40:01;;;;;;;;;;;4.50;99.90;;;;;;4988734;28;19917;-84
2022/01/30 10:42:44;;;;;;;;;;;4.60;99.90;;;;;;4990619;28;19939;-82
2022/01/30 10:45:14;;;;;;;;;;;4.60;99.90;;;;;;5006365;28;20021;-82
2022/01/30 10:47:40;;;;;;;;;;;4.70;99.90;;;;;;5004467;28;19922;-83
2022/01/30 10:50:14;;;;;;;;;;;4.70;99.90;;;;;;4979382;28;19914;-82
2022/01/30 10:52:55;;;;;;;;;;;4.70;99.90;;;;;;5000298;28;19922;-81
2022/01/30 10:55:40;;;;;;;;;;;4.70;99.90;;;;;;4999849;28;19963;-82
2022/01/30 10:58:07;;;;;;;;;;;4.70;99.90;;;;;;4983458;28;19924;-82
2022/01/30 11:00:36;;;;;;;;;;;4.80;99.90;;;;;;4992451;28;20438;-81
2022/01/30 11:03:02;;;;;;;;;;;4.80;99.90;;;;;;4994652;28;19924;-82
2022/01/30 11:05:27;;;;;;;;;;;4.80;99.90;;;;;;4997338;28;19914;-81
2022/01/30 11:07:53;;;;;;;;;;;4.90;99.90;;;;;;4989160;28;19921;-81
2022/01/30 11:10:25;;;;;;;;;;;4.90;99.90;;;;;;5004282;28;20012;-82
2022/01/30 11:13:07;;;;;;;;;;;4.90;99.90;;;;;;4996798;28;19917;-80
2022/01/30 11:15:36;;;;;;;;;;;4.90;99.90;;;;;;4999208;28;19913;-82
2022/01/30 11:18:03;;;;;;;;;;;4.80;99.90;;;;;;4997085;28;19960;-81
2022/01/30 11:20:32;;;;;;;;;;;4.80;99.90;;;;;;4989336;28;19926;-82
2022/01/30 11:22:59;;;;;;;;;;;4.80;99.90;;;;;;5005215;28;19944;-82
2022/01/30 11:25:27;;;;;;;;;;;4.80;99.90;;;;;;4994249;28;19918;-81
2022/01/30 11:27:54;;;;;;;;;;;4.90;99.90;;;;;;4988913;28;19917;-81
2022/01/30 11:30:20;;;;;;;;;;;4.90;99.90;;;;;;4996787;28;19926;-81
2022/01/30 11:32:46;;;;;;;;;;;4.90;99.90;;;;;;4988190;28;19924;-81
2022/01/30 11:35:11;;;;;;;;;;;4.90;99.90;;;;;;5008007;28;19914;-78
2022/01/30 11:37:37;;;;;;;;;;;4.90;99.90;;;;;;4974518;28;20390;-79
2022/01/30 11:40:13;;;;;;;;;;;5.00;99.90;;;;;;5012210;28;20272;-79
2022/01/30 11:42:40;;;;;;;;;;;5.00;99.90;;;;;;5002280;28;19921;-80
2022/01/30 11:45:08;;;;;;;;;;;5.00;99.90;;;;;;5004178;28;19918;-79
2022/01/30 11:47:48;;;;;;;;;;;5.00;99.90;;;;;;4995111;28;19968;-79
2022/01/30 11:50:16;;;;;;;;;;;5.00;99.90;;;;;;4989204;28;20269;-79
2022/01/30 11:52:46;;;;;;;;;;;5.00;99.90;;;;;;5002997;28;19917;-79
2022/01/30 11:55:32;;;;;;;;;;;5.00;99.90;;;;;;4994239;28;19921;-80
2022/01/30 11:57:58;;;;;;;;;;;5.00;99.90;;;;;;4995958;28;19914;-79
2022/01/30 12:00:40;;;;;;;;;;;5.10;99.90;;;;;;4984522;28;19917;-79
2022/01/30 12:03:26;;;;;;;;;;;5.10;99.90;;;;;;5024476;28;20306;-79
2022/01/30 12:05:52;;;;;;;;;;;5.10;99.90;;;;;;5005611;28;19914;-80
2022/01/30 12:08:36;;;;;;;;;;;5.10;99.90;;;;;;5005944;28;20335;-79
2022/01/30 12:11:01;;;;;;;;;;;5.20;99.90;;;;;;4996227;28;19957;-79
2022/01/30 12:13:43;;;;;;;;;;;5.20;99.90;;;;;;4996707;28;19952;-81
2022/01/30 12:16:28;;;;;;;;;;;5.20;99.90;;;;;;4986471;28;19918;-80
2022/01/30 12:18:54;;;;;;;;;;;5.20;99.90;;;;;;5003637;28;19926;-81
2022/01/30 12:21:25;;;;;;;;;;;5.20;99.90;;;;;;5006166;28;19921;-82
2022/01/30 12:23:51;;;;;;;;;;;5.20;99.90;;;;;;4993109;28;19914;-82
2022/01/30 12:26:19;;;;;;;;;;;5.10;99.90;;;;;;4990277;28;19984;-80
2022/01/30 12:28:46;;;;;;;;;;;5.10;99.90;;;;;;4985735;28;20395;-79
2022/01/30 12:31:32;;;;;;;;;;;5.10;99.90;;;;;;5003979;28;19929;-79
2022/01/30 12:34:00;;;;;;;;;;;5.10;99.90;;;;;;4986129;28;19972;-80
2022/01/30 12:36:26;;;;;;;;;;;5.10;99.90;;;;;;5003521;28;20430;-80
2022/01/30 12:38:53;;;;;;;;;;;5.00;99.90;;;;;;4990501;28;20048;-81
2022/01/30 12:41:21;;;;;;;;;;;5.00;99.90;;;;;;4994729;28;20419;-81
2022/01/30 12:43:52;;;;;;;;;;;5.00;99.90;;;;;;5001482;28;19931;-81
2022/01/30 12:46:21;;;;;;;;;;;4.90;99.90;;;;;;4989955;28;20394;-79
2022/01/30 12:49:00;;;;;;;;;;;5.00;99.90;;;;;;5007179;28;19917;-82
2022/01/30 12:51:26;;;;;;;;;;;5.00;99.90;;;;;;4996816;28;19918;-81
2022/01/30 12:53:52;;;;;;;;;;;5.00;99.90;;;;;;4999395;28;20584;-81
2022/01/30 12:56:18;;;;;;;;;;;5.00;99.90;;;;;;4996164;28;20516;-81
2022/01/30 12:58:48;;;;;;;;;;;5.10;99.90;;;;;;4989835;28;19929;-81
2022/01/30 13:01:16;;;;;;;;;;;5.10;99.90;;;;;;5011106;28;19925;-81
2022/01/30 13:03:42;;;;;;;;;;;5.10;99.90;;;;;;5008423;28;19920;-82
2022/01/30 13:06:08;;;;;;;;;;;5.10;99.90;;;;;;4975273;28;20354;-81
2022/01/30 13:08:44;;;;;;;;;;;5.10;99.90;;;;;;4980653;28;20016;-80
2022/01/30 13:11:16;;;;;;;;;;;5.20;99.90;;;;;;5004894;28;20020;-81
2022/01/30 13:13:50;;;;;;;;;;;5.20;99.90;;;;;;5007534;28;19932;-81
2022/01/30 13:16:15;;;;;;;;;;;5.10;99.90;;;;;;5008636;28;19968;-80
2022/01/30 13:18:44;;;;;;;;;;;5.10;99.90;;;;;;5006679;28;20318;-81
2022/01/30 13:21:10;;;;;;;;;;;5.00;99.90;;;;;;4977982;28;19925;-81
2022/01/30 13:23:35;;;;;;;;;;;4.90;99.90;;;;;;5002854;28;21308;-80
2022/01/30 13:26:02;;;;;;;;;;;4.90;99.90;;;;;;5011566;28;19964;-81
2022/01/30 13:28:29;;;;;;;;;;;4.90;99.90;;;;;;5002077;28;19913;-79
2022/01/30 13:31:10;;;;;;;;;;;4.80;99.90;;;;;;5009161;28;19917;-79
2022/01/30 13:33:37;;;;;;;;;;;4.80;99.90;;;;;;5003163;28;20387;-79
2022/01/30 13:36:02;;;;;;;;;;;4.80;99.90;;;;;;5004321;28;20028;-79
2022/01/30 13:38:28;;;;;;;;;;;4.70;99.90;;;;;;4995903;28;20008;-79
2022/01/30 13:40:59;;;;;;;;;;;4.70;99.90;;;;;;5000183;28;20354;-79
2022/01/30 13:43:28;;;;;;;;;;;4.60;99.90;;;;;;4995839;28;19921;-79
2022/01/30 13:48:20;;;;;;;;;;;4.60;99.90;;;;;;4990790;28;19948;-79
2022/01/30 13:51:06;;;;;;;;;;;4.50;99.90;;;;;;4996886;28;20364;-79
2022/01/30 13:53:35;;;;;;;;;;;4.50;99.90;;;;;;5009329;28;20423;-79
2022/01/30 13:56:05;;;;;;;;;;;4.50;99.90;;;;;;5001718;28;19918;-79
2022/01/30 13:58:37;;;;;;;;;;;4.40;99.90;;;;;;4989942;28;20047;-80
2022/01/30 14:01:03;;;;;;;;;;;4.30;99.90;;;;;;5007289;28;20008;-80
2022/01/30 14:03:29;;;;;;;;;;;4.20;99.90;;;;;;5001645;28;19922;-80
2022/01/30 14:05:56;;;;;;;;;;;4.20;99.90;;;;;;4990215;28;20008;-79
2022/01/30 14:08:24;;;;;;;;;;;4.20;99.90;;;;;;4998620;28;19913;-80
2022/01/30 14:10:50;;;;;;;;;;;4.20;99.90;;;;;;5007896;28;19918;-79
2022/01/30 14:13:21;;;;;;;;;;;4.20;99.90;;;;;;4991605;28;19921;-80
2022/01/30 14:15:59;;;;;;;;;;;4.20;99.90;;;;;;4993176;28;20048;-80
2022/01/30 14:18:27;;;;;;;;;;;4.10;99.90;;;;;;5006858;28;19967;-80
2022/01/30 14:20:53;;;;;;;;;;;4.10;99.90;;;;;;4994415;28;19921;-80
2022/01/30 14:23:20;;;;;;;;;;;4.10;99.90;;;;;;4995548;28;19928;-80
2022/01/30 14:25:48;;;;;;;;;;;4.20;99.90;;;;;;4993774;28;19914;-80
2022/01/30 14:28:24;;;;;;;;;;;4.20;99.90;;;;;;5010152;28;19960;-80
2022/01/30 14:30:50;;;;;;;;;;;4.20;99.90;;;;;;5009444;28;20338;-80
2022/01/30 14:33:15;;;;;;;;;;;4.30;99.90;;;;;;5013912;28;19914;-80
2022/01/30 14:35:42;;;;;;;;;;;4.30;99.90;;;;;;5024245;28;20276;-80
2022/01/30 14:38:08;;;;;;;;;;;4.30;99.90;;;;;;5012538;28;20008;-80
2022/01/30 14:40:37;;;;;;;;;;;4.40;99.90;;;;;;4998920;28;20388;-80
2022/01/30 14:43:07;;;;;;;;;;;4.30;99.90;;;;;;4999478;28;19992;-80
2022/01/30 14:45:33;;;;;;;;;;;4.30;99.90;;;;;;5007150;28;19921;-79
2022/01/30 14:47:59;;;;;;;;;;;4.30;99.90;;;;;;4998956;28;19913;-79
2022/01/30 14:50:25;;;;;;;;;;;4.30;99.90;;;;;;4997660;28;19956;-79
2022/01/30 14:52:51;;;;;;;;;;;4.30;99.90;;;;;;5010543;28;19957;-79
2022/01/30 14:55:17;;;;;;;;;;;4.30;99.90;;;;;;5012268;28;19913;-80
2022/01/30 14:57:44;;;;;;;;;;;4.30;99.90;;;;;;5010698;28;19918;-79
2022/01/30 15:00:12;;;;;;;;;;;4.20;99.90;;;;;;5005860;28;19921;-79
2022/01/30 15:02:38;;;;;;;;;;;4.20;99.90;;;;;;5008100;28;20040;-79
2022/01/30 15:05:04;;;;;;;;;;;4.20;99.90;;;;;;5010886;28;20045;-79
2022/01/30 15:07:30;;;;;;;;;;;4.20;99.90;;;;;;5008973;28;19922;-79
2022/01/30 15:09:56;;;;;;;;;;;4.10;99.90;;;;;;5006373;28;19928;-78
2022/01/30 15:12:21;;;;;;;;;;;4.10;99.90;;;;;;5008600;28;19918;-81
2022/01/30 15:14:51;;;;;;;;;;;4.10;99.90;;;;;;5005997;28;19952;-80
2022/01/30 15:17:21;;;;;;;;;;;4.10;99.90;;;;;;4999423;28;19918;-81
2022/01/30 15:19:47;;;;;;;;;;;4.00;99.90;;;;;;5003534;28;19924;-80
2022/01/30 15:22:13;;;;;;;;;;;4.00;99.90;;;;;;5008405;28;19913;-81
2022/01/30 15:24:39;;;;;;;;;;;3.90;99.90;;;;;;5008676;28;19922;-80
2022/01/30 15:27:04;;;;;;;;;;;3.90;99.90;;;;;;5002156;28;21229;-81
2022/01/30 15:29:30;;;;;;;;;;;3.80;99.90;;;;;;4989854;28;19925;-81
2022/01/30 15:31:55;;;;;;;;;;;3.80;99.90;;;;;;5008202;28;19921;-78
2022/01/30 15:34:21;;;;;;;;;;;3.80;99.90;;;;;;4998633;28;19917;-80
2022/01/30 15:36:47;;;;;;;;;;;3.80;99.90;;;;;;5000430;28;19924;-80
2022/01/30 15:39:12;;;;;;;;;;;3.80;99.90;;;;;;4983405;28;19941;-78
2022/01/30 15:41:38;;;;;;;;;;;3.80;99.90;;;;;;5004652;28;19928;-78
2022/01/30 15:44:05;;;;;;;;;;;3.70;99.90;;;;;;5007539;28;19921;-79
2022/01/30 15:49:15;;;;;;;;;;;3.70;99.90;;;;;;4994164;28;19913;-81